sensor_id;sensor_type;location;lat;lon;timestamp;P1;durP1;ratioP1;P2;durP2;ratioP2
77310;SDS011;66371;52.714;5.074;2023-05-28T00:01:54;13.32;;;8.30;;
77310;SDS011;66371;52.714;5.074;2023-05-28T00:04:20;16.75;;;8.82;;
77310;SDS011;66371;52.714;5.074;2023-05-28T00:06:46;14.43;;;9.73;;
77310;SDS011;66371;52.714;5.074;2023-05-28T00:09:14;12.40;;;9.50;;
77310;SDS011;66371;52.714;5.074;2023-05-28T00:11:39;14.18;;;7.85;;
77310;SDS011;66371;52.714;5.074;2023-05-28T00:14:05;14.52;;;9.68;;
77310;SDS011;66371;52.714;5.074;2023-05-28T00:16:30;16.35;;;8.15;;
77310;SDS011;66371;52.714;5.074;2023-05-28T00:18:56;14.48;;;8.07;;
77310;SDS011;66371;52.714;5.074;2023-05-28T00:21:21;14.85;;;8.20;;
77310;SDS011;66371;52.714;5.074;2023-05-28T00:23:47;16.63;;;8.57;;
77310;SDS011;66371;52.714;5.074;2023-05-28T00:28:40;18.73;;;7.72;;
77310;SDS011;66371;52.714;5.074;2023-05-28T00:31:06;15.75;;;8.63;;
77310;SDS011;66371;52.714;5.074;2023-05-28T00:35:56;14.85;;;9.45;;
77310;SDS011;66371;52.714;5.074;2023-05-28T00:38:22;14.75;;;9.65;;
77310;SDS011;66371;52.714;5.074;2023-05-28T00:43:15;15.90;;;9.13;;
77310;SDS011;66371;52.714;5.074;2023-05-28T00:45:41;13.95;;;9.23;;
77310;SDS011;66371;52.714;5.074;2023-05-28T00:48:06;10.02;;;8.25;;
77310;SDS011;66371;52.714;5.074;2023-05-28T00:52:57;14.85;;;8.05;;
77310;SDS011;66371;52.714;5.074;2023-05-28T00:55:24;17.90;;;10.27;;
77310;SDS011;66371;52.714;5.074;2023-05-28T00:57:49;13.18;;;8.70;;
77310;SDS011;66371;52.714;5.074;2023-05-28T01:03:00;14.75;;;8.25;;
77310;SDS011;66371;52.714;5.074;2023-05-28T01:05:26;18.80;;;8.80;;
77310;SDS011;66371;52.714;5.074;2023-05-28T01:10:17;14.33;;;9.13;;
77310;SDS011;66371;52.714;5.074;2023-05-28T01:12:42;14.20;;;9.27;;
77310;SDS011;66371;52.714;5.074;2023-05-28T01:15:09;13.05;;;9.48;;
77310;SDS011;66371;52.714;5.074;2023-05-28T01:17:37;11.65;;;7.63;;
77310;SDS011;66371;52.714;5.074;2023-05-28T01:20:04;14.45;;;8.18;;
77310;SDS011;66371;52.714;5.074;2023-05-28T01:22:38;15.05;;;8.75;;
77310;SDS011;66371;52.714;5.074;2023-05-28T01:25:13;10.88;;;9.10;;
77310;SDS011;66371;52.714;5.074;2023-05-28T01:27:40;17.45;;;10.85;;
77310;SDS011;66371;52.714;5.074;2023-05-28T01:30:07;13.32;;;8.40;;
77310;SDS011;66371;52.714;5.074;2023-05-28T01:32:37;12.20;;;9.70;;
77310;SDS011;66371;52.714;5.074;2023-05-28T01:35:03;18.52;;;8.77;;
77310;SDS011;66371;52.714;5.074;2023-05-28T01:37:31;12.32;;;9.85;;
77310;SDS011;66371;52.714;5.074;2023-05-28T01:39:58;16.27;;;11.00;;
77310;SDS011;66371;52.714;5.074;2023-05-28T01:42:28;15.40;;;9.65;;
77310;SDS011;66371;52.714;5.074;2023-05-28T01:44:55;17.17;;;9.30;;
77310;SDS011;66371;52.714;5.074;2023-05-28T01:47:22;16.08;;;8.57;;
77310;SDS011;66371;52.714;5.074;2023-05-28T01:49:48;14.27;;;8.93;;
77310;SDS011;66371;52.714;5.074;2023-05-28T01:52:14;14.52;;;8.50;;
77310;SDS011;66371;52.714;5.074;2023-05-28T01:57:05;11.53;;;8.77;;
77310;SDS011;66371;52.714;5.074;2023-05-28T02:01:56;13.43;;;8.40;;
77310;SDS011;66371;52.714;5.074;2023-05-28T02:06:47;11.00;;;8.07;;
77310;SDS011;66371;52.714;5.074;2023-05-28T02:11:38;11.23;;;7.67;;
77310;SDS011;66371;52.714;5.074;2023-05-28T02:16:30;11.20;;;8.15;;
77310;SDS011;66371;52.714;5.074;2023-05-28T02:18:55;15.20;;;9.30;;
77310;SDS011;66371;52.714;5.074;2023-05-28T02:23:47;10.83;;;7.67;;
77310;SDS011;66371;52.714;5.074;2023-05-28T02:26:13;11.75;;;7.22;;
77310;SDS011;66371;52.714;5.074;2023-05-28T02:28:40;14.52;;;9.38;;
77310;SDS011;66371;52.714;5.074;2023-05-28T02:31:08;13.85;;;9.75;;
77310;SDS011;66371;52.714;5.074;2023-05-28T02:33:37;10.57;;;9.48;;
77310;SDS011;66371;52.714;5.074;2023-05-28T02:36:03;18.15;;;9.05;;
77310;SDS011;66371;52.714;5.074;2023-05-28T02:38:28;15.68;;;8.50;;
77310;SDS011;66371;52.714;5.074;2023-05-28T02:40:54;12.35;;;8.38;;
77310;SDS011;66371;52.714;5.074;2023-05-28T02:43:20;14.45;;;9.50;;
77310;SDS011;66371;52.714;5.074;2023-05-28T02:48:11;11.23;;;7.27;;
77310;SDS011;66371;52.714;5.074;2023-05-28T02:53:02;13.10;;;8.97;;
77310;SDS011;66371;52.714;5.074;2023-05-28T02:55:28;13.23;;;7.43;;
77310;SDS011;66371;52.714;5.074;2023-05-28T02:57:53;12.00;;;8.20;;
77310;SDS011;66371;52.714;5.074;2023-05-28T03:00:19;11.95;;;7.55;;
77310;SDS011;66371;52.714;5.074;2023-05-28T03:02:45;14.55;;;8.15;;
77310;SDS011;66371;52.714;5.074;2023-05-28T03:05:10;13.20;;;8.63;;
77310;SDS011;66371;52.714;5.074;2023-05-28T03:07:35;12.85;;;7.97;;
77310;SDS011;66371;52.714;5.074;2023-05-28T03:10:01;11.32;;;7.45;;
77310;SDS011;66371;52.714;5.074;2023-05-28T03:12:29;12.68;;;8.25;;
77310;SDS011;66371;52.714;5.074;2023-05-28T03:14:55;10.55;;;8.82;;
77310;SDS011;66371;52.714;5.074;2023-05-28T03:17:20;15.45;;;8.88;;
77310;SDS011;66371;52.714;5.074;2023-05-28T03:19:46;11.85;;;7.43;;
77310;SDS011;66371;52.714;5.074;2023-05-28T03:22:11;10.63;;;7.43;;
77310;SDS011;66371;52.714;5.074;2023-05-28T03:27:04;10.00;;;8.00;;
77310;SDS011;66371;52.714;5.074;2023-05-28T03:29:30;12.45;;;8.80;;
77310;SDS011;66371;52.714;5.074;2023-05-28T03:31:56;16.80;;;9.05;;
77310;SDS011;66371;52.714;5.074;2023-05-28T03:34:22;13.35;;;8.35;;
77310;SDS011;66371;52.714;5.074;2023-05-28T03:36:48;12.95;;;9.27;;
77310;SDS011;66371;52.714;5.074;2023-05-28T03:39:17;13.35;;;8.30;;
77310;SDS011;66371;52.714;5.074;2023-05-28T03:41:43;12.13;;;8.52;;
77310;SDS011;66371;52.714;5.074;2023-05-28T03:44:11;13.48;;;8.77;;
77310;SDS011;66371;52.714;5.074;2023-05-28T03:46:36;12.05;;;8.52;;
77310;SDS011;66371;52.714;5.074;2023-05-28T03:51:27;13.45;;;7.97;;
77310;SDS011;66371;52.714;5.074;2023-05-28T03:53:52;11.32;;;7.80;;
77310;SDS011;66371;52.714;5.074;2023-05-28T03:58:46;11.75;;;8.30;;
77310;SDS011;66371;52.714;5.074;2023-05-28T04:01:11;13.07;;;8.63;;
77310;SDS011;66371;52.714;5.074;2023-05-28T04:03:37;12.60;;;8.38;;
77310;SDS011;66371;52.714;5.074;2023-05-28T04:06:03;11.20;;;9.20;;
77310;SDS011;66371;52.714;5.074;2023-05-28T04:10:54;14.35;;;7.95;;
77310;SDS011;66371;52.714;5.074;2023-05-28T04:15:45;12.70;;;8.80;;
77310;SDS011;66371;52.714;5.074;2023-05-28T04:20:36;11.87;;;8.20;;
77310;SDS011;66371;52.714;5.074;2023-05-28T04:23:01;10.10;;;8.32;;
77310;SDS011;66371;52.714;5.074;2023-05-28T04:25:28;13.23;;;7.68;;
77310;SDS011;66371;52.714;5.074;2023-05-28T04:27:54;13.65;;;9.18;;
77310;SDS011;66371;52.714;5.074;2023-05-28T04:30:19;14.02;;;8.82;;
77310;SDS011;66371;52.714;5.074;2023-05-28T04:32:47;11.70;;;8.20;;
77310;SDS011;66371;52.714;5.074;2023-05-28T04:35:16;12.55;;;8.07;;
77310;SDS011;66371;52.714;5.074;2023-05-28T04:37:41;11.63;;;7.05;;
77310;SDS011;66371;52.714;5.074;2023-05-28T04:40:07;18.43;;;7.70;;
77310;SDS011;66371;52.714;5.074;2023-05-28T04:42:37;13.18;;;8.38;;
77310;SDS011;66371;52.714;5.074;2023-05-28T04:45:03;11.57;;;8.60;;
77310;SDS011;66371;52.714;5.074;2023-05-28T04:47:29;13.30;;;9.40;;
77310;SDS011;66371;52.714;5.074;2023-05-28T04:49:54;12.55;;;8.73;;
77310;SDS011;66371;52.714;5.074;2023-05-28T04:52:23;18.15;;;9.30;;
77310;SDS011;66371;52.714;5.074;2023-05-28T04:54:48;13.45;;;9.00;;
77310;SDS011;66371;52.714;5.074;2023-05-28T04:57:14;11.85;;;7.30;;
77310;SDS011;66371;52.714;5.074;2023-05-28T04:59:39;11.15;;;8.13;;
77310;SDS011;66371;52.714;5.074;2023-05-28T05:02:05;15.90;;;9.43;;
77310;SDS011;66371;52.714;5.074;2023-05-28T05:04:30;14.32;;;9.07;;
77310;SDS011;66371;52.714;5.074;2023-05-28T05:06:56;15.52;;;8.48;;
77310;SDS011;66371;52.714;5.074;2023-05-28T05:09:21;11.88;;;7.60;;
77310;SDS011;66371;52.714;5.074;2023-05-28T05:11:48;13.60;;;8.20;;
77310;SDS011;66371;52.714;5.074;2023-05-28T05:14:13;15.05;;;8.98;;
77310;SDS011;66371;52.714;5.074;2023-05-28T05:16:39;13.63;;;8.82;;
77310;SDS011;66371;52.714;5.074;2023-05-28T05:19:05;12.85;;;7.70;;
77310;SDS011;66371;52.714;5.074;2023-05-28T05:23:56;17.20;;;8.75;;
77310;SDS011;66371;52.714;5.074;2023-05-28T05:28:47;16.40;;;9.33;;
77310;SDS011;66371;52.714;5.074;2023-05-28T05:31:13;14.45;;;10.13;;
77310;SDS011;66371;52.714;5.074;2023-05-28T05:33:39;14.15;;;9.63;;
77310;SDS011;66371;52.714;5.074;2023-05-28T05:36:06;13.60;;;8.32;;
77310;SDS011;66371;52.714;5.074;2023-05-28T05:38:33;15.20;;;8.77;;
77310;SDS011;66371;52.714;5.074;2023-05-28T05:40:58;12.23;;;7.27;;
77310;SDS011;66371;52.714;5.074;2023-05-28T05:43:23;11.30;;;7.28;;
77310;SDS011;66371;52.714;5.074;2023-05-28T05:45:49;11.63;;;8.25;;
77310;SDS011;66371;52.714;5.074;2023-05-28T05:48:14;11.90;;;7.95;;
77310;SDS011;66371;52.714;5.074;2023-05-28T05:50:49;14.50;;;7.83;;
77310;SDS011;66371;52.714;5.074;2023-05-28T05:53:15;15.32;;;8.85;;
77310;SDS011;66371;52.714;5.074;2023-05-28T05:55:42;14.02;;;6.57;;
77310;SDS011;66371;52.714;5.074;2023-05-28T05:58:07;12.82;;;9.55;;
77310;SDS011;66371;52.714;5.074;2023-05-28T06:00:33;13.60;;;7.28;;
77310;SDS011;66371;52.714;5.074;2023-05-28T06:02:59;9.95;;;7.07;;
77310;SDS011;66371;52.714;5.074;2023-05-28T06:05:25;12.20;;;8.07;;
77310;SDS011;66371;52.714;5.074;2023-05-28T06:07:50;15.48;;;9.05;;
77310;SDS011;66371;52.714;5.074;2023-05-28T06:10:16;11.38;;;7.53;;
77310;SDS011;66371;52.714;5.074;2023-05-28T06:12:41;14.13;;;7.95;;
77310;SDS011;66371;52.714;5.074;2023-05-28T06:15:07;12.85;;;7.55;;
77310;SDS011;66371;52.714;5.074;2023-05-28T06:17:33;10.25;;;6.97;;
77310;SDS011;66371;52.714;5.074;2023-05-28T06:19:59;11.75;;;7.65;;
77310;SDS011;66371;52.714;5.074;2023-05-28T06:22:29;12.63;;;6.85;;
77310;SDS011;66371;52.714;5.074;2023-05-28T06:24:55;12.95;;;9.00;;
77310;SDS011;66371;52.714;5.074;2023-05-28T06:27:21;12.85;;;7.68;;
77310;SDS011;66371;52.714;5.074;2023-05-28T06:29:47;10.77;;;9.13;;
77310;SDS011;66371;52.714;5.074;2023-05-28T06:32:13;11.75;;;8.25;;
77310;SDS011;66371;52.714;5.074;2023-05-28T06:34:38;14.02;;;7.43;;
77310;SDS011;66371;52.714;5.074;2023-05-28T06:37:04;11.80;;;7.55;;
77310;SDS011;66371;52.714;5.074;2023-05-28T06:39:30;12.27;;;6.97;;
77310;SDS011;66371;52.714;5.074;2023-05-28T06:41:55;16.42;;;8.52;;
77310;SDS011;66371;52.714;5.074;2023-05-28T06:44:21;13.30;;;6.57;;
77310;SDS011;66371;52.714;5.074;2023-05-28T06:46:46;14.80;;;8.37;;
77310;SDS011;66371;52.714;5.074;2023-05-28T06:49:12;14.77;;;8.18;;
77310;SDS011;66371;52.714;5.074;2023-05-28T06:51:37;14.95;;;6.75;;
77310;SDS011;66371;52.714;5.074;2023-05-28T06:54:03;11.98;;;6.90;;
77310;SDS011;66371;52.714;5.074;2023-05-28T06:56:28;11.98;;;7.63;;
77310;SDS011;66371;52.714;5.074;2023-05-28T06:58:53;10.23;;;7.07;;
77310;SDS011;66371;52.714;5.074;2023-05-28T07:01:19;11.95;;;8.02;;
77310;SDS011;66371;52.714;5.074;2023-05-28T07:03:45;8.50;;;6.25;;
77310;SDS011;66371;52.714;5.074;2023-05-28T07:06:11;11.00;;;6.55;;
77310;SDS011;66371;52.714;5.074;2023-05-28T07:08:37;14.85;;;8.63;;
77310;SDS011;66371;52.714;5.074;2023-05-28T07:11:06;10.32;;;7.22;;
77310;SDS011;66371;52.714;5.074;2023-05-28T07:13:32;13.80;;;7.00;;
77310;SDS011;66371;52.714;5.074;2023-05-28T07:15:58;15.63;;;10.30;;
77310;SDS011;66371;52.714;5.074;2023-05-28T07:18:23;14.43;;;8.95;;
77310;SDS011;66371;52.714;5.074;2023-05-28T07:20:49;18.15;;;10.25;;
77310;SDS011;66371;52.714;5.074;2023-05-28T07:23:15;14.80;;;7.97;;
77310;SDS011;66371;52.714;5.074;2023-05-28T07:25:41;12.30;;;8.35;;
77310;SDS011;66371;52.714;5.074;2023-05-28T07:28:07;16.67;;;8.02;;
77310;SDS011;66371;52.714;5.074;2023-05-28T07:30:33;15.05;;;8.65;;
77310;SDS011;66371;52.714;5.074;2023-05-28T07:32:58;17.65;;;10.02;;
77310;SDS011;66371;52.714;5.074;2023-05-28T07:35:23;12.75;;;8.40;;
77310;SDS011;66371;52.714;5.074;2023-05-28T07:37:49;15.93;;;9.75;;
77310;SDS011;66371;52.714;5.074;2023-05-28T07:40:14;15.23;;;8.27;;
77310;SDS011;66371;52.714;5.074;2023-05-28T07:42:40;12.30;;;7.65;;
77310;SDS011;66371;52.714;5.074;2023-05-28T07:45:06;10.73;;;8.27;;
77310;SDS011;66371;52.714;5.074;2023-05-28T07:47:32;13.27;;;7.75;;
77310;SDS011;66371;52.714;5.074;2023-05-28T07:49:58;11.13;;;9.43;;
77310;SDS011;66371;52.714;5.074;2023-05-28T07:52:23;15.45;;;8.23;;
77310;SDS011;66371;52.714;5.074;2023-05-28T07:54:50;11.43;;;7.90;;
77310;SDS011;66371;52.714;5.074;2023-05-28T07:57:16;14.32;;;9.07;;
77310;SDS011;66371;52.714;5.074;2023-05-28T07:59:41;11.35;;;7.28;;
77310;SDS011;66371;52.714;5.074;2023-05-28T08:02:07;12.57;;;9.02;;
77310;SDS011;66371;52.714;5.074;2023-05-28T08:04:32;12.88;;;9.35;;
77310;SDS011;66371;52.714;5.074;2023-05-28T08:06:58;13.05;;;7.38;;
77310;SDS011;66371;52.714;5.074;2023-05-28T08:09:23;10.00;;;7.27;;
77310;SDS011;66371;52.714;5.074;2023-05-28T08:11:49;16.00;;;9.48;;
77310;SDS011;66371;52.714;5.074;2023-05-28T08:14:14;12.82;;;8.48;;
77310;SDS011;66371;52.714;5.074;2023-05-28T08:16:40;14.93;;;7.97;;
77310;SDS011;66371;52.714;5.074;2023-05-28T08:19:05;11.80;;;7.25;;
77310;SDS011;66371;52.714;5.074;2023-05-28T08:21:31;12.27;;;8.60;;
77310;SDS011;66371;52.714;5.074;2023-05-28T08:23:56;11.50;;;7.28;;
77310;SDS011;66371;52.714;5.074;2023-05-28T08:26:22;12.00;;;7.07;;
77310;SDS011;66371;52.714;5.074;2023-05-28T08:28:47;9.13;;;6.63;;
77310;SDS011;66371;52.714;5.074;2023-05-28T08:31:13;10.38;;;6.32;;
77310;SDS011;66371;52.714;5.074;2023-05-28T08:33:38;14.20;;;8.13;;
77310;SDS011;66371;52.714;5.074;2023-05-28T08:36:04;10.18;;;6.97;;
77310;SDS011;66371;52.714;5.074;2023-05-28T08:38:31;10.48;;;7.18;;
77310;SDS011;66371;52.714;5.074;2023-05-28T08:40:56;13.27;;;6.50;;
77310;SDS011;66371;52.714;5.074;2023-05-28T08:43:23;10.50;;;7.28;;
77310;SDS011;66371;52.714;5.074;2023-05-28T08:45:52;12.40;;;7.03;;
77310;SDS011;66371;52.714;5.074;2023-05-28T08:48:17;13.35;;;6.88;;
77310;SDS011;66371;52.714;5.074;2023-05-28T08:50:45;9.55;;;7.40;;
77310;SDS011;66371;52.714;5.074;2023-05-28T08:53:20;10.75;;;5.72;;
77310;SDS011;66371;52.714;5.074;2023-05-28T08:55:47;10.88;;;6.53;;
77310;SDS011;66371;52.714;5.074;2023-05-28T08:58:12;10.45;;;6.00;;
77310;SDS011;66371;52.714;5.074;2023-05-28T09:00:38;12.10;;;7.97;;
77310;SDS011;66371;52.714;5.074;2023-05-28T09:03:05;11.63;;;5.75;;
77310;SDS011;66371;52.714;5.074;2023-05-28T09:05:36;10.55;;;5.28;;
77310;SDS011;66371;52.714;5.074;2023-05-28T09:08:08;10.65;;;6.85;;
77310;SDS011;66371;52.714;5.074;2023-05-28T09:10:38;9.50;;;5.63;;
77310;SDS011;66371;52.714;5.074;2023-05-28T09:13:05;9.68;;;8.07;;
77310;SDS011;66371;52.714;5.074;2023-05-28T09:15:31;8.77;;;7.05;;
77310;SDS011;66371;52.714;5.074;2023-05-28T09:17:59;8.10;;;6.63;;
77310;SDS011;66371;52.714;5.074;2023-05-28T09:20:24;7.82;;;6.38;;
77310;SDS011;66371;52.714;5.074;2023-05-28T09:22:57;13.18;;;7.30;;
77310;SDS011;66371;52.714;5.074;2023-05-28T09:25:35;11.88;;;8.00;;
77310;SDS011;66371;52.714;5.074;2023-05-28T09:28:01;8.48;;;6.07;;
77310;SDS011;66371;52.714;5.074;2023-05-28T09:30:27;10.07;;;6.38;;
77310;SDS011;66371;52.714;5.074;2023-05-28T09:33:03;7.80;;;6.32;;
77310;SDS011;66371;52.714;5.074;2023-05-28T09:35:30;9.98;;;5.65;;
77310;SDS011;66371;52.714;5.074;2023-05-28T09:38:04;11.82;;;8.77;;
77310;SDS011;66371;52.714;5.074;2023-05-28T09:40:39;10.38;;;6.70;;
77310;SDS011;66371;52.714;5.074;2023-05-28T09:43:06;12.35;;;8.60;;
77310;SDS011;66371;52.714;5.074;2023-05-28T09:45:32;13.20;;;8.52;;
77310;SDS011;66371;52.714;5.074;2023-05-28T09:47:58;9.60;;;7.55;;
77310;SDS011;66371;52.714;5.074;2023-05-28T09:50:27;9.98;;;7.63;;
77310;SDS011;66371;52.714;5.074;2023-05-28T09:52:57;10.13;;;8.07;;
77310;SDS011;66371;52.714;5.074;2023-05-28T09:55:24;11.40;;;6.50;;
77310;SDS011;66371;52.714;5.074;2023-05-28T09:57:55;11.95;;;6.82;;
77310;SDS011;66371;52.714;5.074;2023-05-28T10:00:29;9.40;;;6.38;;
77310;SDS011;66371;52.714;5.074;2023-05-28T10:03:09;10.57;;;6.00;;
77310;SDS011;66371;52.714;5.074;2023-05-28T10:05:42;9.15;;;6.40;;
77310;SDS011;66371;52.714;5.074;2023-05-28T10:08:13;10.65;;;6.25;;
77310;SDS011;66371;52.714;5.074;2023-05-28T10:10:41;11.55;;;6.95;;
77310;SDS011;66371;52.714;5.074;2023-05-28T10:13:07;11.52;;;7.57;;
77310;SDS011;66371;52.714;5.074;2023-05-28T10:15:35;7.47;;;5.80;;
77310;SDS011;66371;52.714;5.074;2023-05-28T10:18:02;11.32;;;6.57;;
77310;SDS011;66371;52.714;5.074;2023-05-28T10:20:28;7.55;;;6.25;;
77310;SDS011;66371;52.714;5.074;2023-05-28T10:22:54;11.65;;;7.28;;
77310;SDS011;66371;52.714;5.074;2023-05-28T10:25:20;9.13;;;6.45;;
77310;SDS011;66371;52.714;5.074;2023-05-28T10:27:46;8.25;;;5.45;;
77310;SDS011;66371;52.714;5.074;2023-05-28T10:30:29;9.55;;;6.85;;
77310;SDS011;66371;52.714;5.074;2023-05-28T10:32:56;7.78;;;6.60;;
77310;SDS011;66371;52.714;5.074;2023-05-28T10:35:22;11.50;;;6.47;;
77310;SDS011;66371;52.714;5.074;2023-05-28T10:37:48;10.50;;;7.05;;
77310;SDS011;66371;52.714;5.074;2023-05-28T10:40:22;13.35;;;7.28;;
77310;SDS011;66371;52.714;5.074;2023-05-28T10:42:51;9.23;;;6.22;;
77310;SDS011;66371;52.714;5.074;2023-05-28T10:45:16;9.00;;;6.43;;
77310;SDS011;66371;52.714;5.074;2023-05-28T10:47:50;8.15;;;5.18;;
77310;SDS011;66371;52.714;5.074;2023-05-28T10:50:18;8.73;;;6.53;;
77310;SDS011;66371;52.714;5.074;2023-05-28T10:53:03;11.90;;;7.00;;
77310;SDS011;66371;52.714;5.074;2023-05-28T10:55:51;10.82;;;6.13;;
77310;SDS011;66371;52.714;5.074;2023-05-28T11:01:00;9.73;;;6.80;;
77310;SDS011;66371;52.714;5.074;2023-05-28T11:03:39;7.68;;;6.13;;
77310;SDS011;66371;52.714;5.074;2023-05-28T11:06:05;7.97;;;5.60;;
77310;SDS011;66371;52.714;5.074;2023-05-28T11:08:32;13.00;;;7.25;;
77310;SDS011;66371;52.714;5.074;2023-05-28T11:11:02;11.32;;;7.20;;
77310;SDS011;66371;52.714;5.074;2023-05-28T11:13:29;10.27;;;6.88;;
77310;SDS011;66371;52.714;5.074;2023-05-28T11:15:54;10.70;;;6.30;;
77310;SDS011;66371;52.714;5.074;2023-05-28T11:18:19;9.37;;;6.97;;
77310;SDS011;66371;52.714;5.074;2023-05-28T11:20:45;9.55;;;7.65;;
77310;SDS011;66371;52.714;5.074;2023-05-28T11:23:14;11.15;;;7.38;;
77310;SDS011;66371;52.714;5.074;2023-05-28T11:25:43;9.73;;;6.85;;
77310;SDS011;66371;52.714;5.074;2023-05-28T11:28:10;10.10;;;6.60;;
77310;SDS011;66371;52.714;5.074;2023-05-28T11:30:36;8.85;;;6.15;;
77310;SDS011;66371;52.714;5.074;2023-05-28T11:33:01;10.43;;;7.32;;
77310;SDS011;66371;52.714;5.074;2023-05-28T11:35:27;8.70;;;7.00;;
77310;SDS011;66371;52.714;5.074;2023-05-28T11:37:52;9.13;;;6.33;;
77310;SDS011;66371;52.714;5.074;2023-05-28T11:40:18;10.55;;;5.43;;
77310;SDS011;66371;52.714;5.074;2023-05-28T11:42:44;8.95;;;5.95;;
77310;SDS011;66371;52.714;5.074;2023-05-28T11:45:10;8.48;;;5.55;;
77310;SDS011;66371;52.714;5.074;2023-05-28T11:47:36;11.50;;;6.20;;
77310;SDS011;66371;52.714;5.074;2023-05-28T11:50:06;9.48;;;6.47;;
77310;SDS011;66371;52.714;5.074;2023-05-28T11:52:33;6.22;;;4.25;;
77310;SDS011;66371;52.714;5.074;2023-05-28T11:54:59;6.68;;;4.57;;
77310;SDS011;66371;52.714;5.074;2023-05-28T11:57:26;7.97;;;5.18;;
77310;SDS011;66371;52.714;5.074;2023-05-28T12:00:00;7.75;;;5.13;;
77310;SDS011;66371;52.714;5.074;2023-05-28T12:02:42;9.40;;;5.57;;
77310;SDS011;66371;52.714;5.074;2023-05-28T12:05:10;6.53;;;5.35;;
77310;SDS011;66371;52.714;5.074;2023-05-28T12:07:36;7.22;;;5.30;;
77310;SDS011;66371;52.714;5.074;2023-05-28T12:10:02;9.73;;;5.82;;
77310;SDS011;66371;52.714;5.074;2023-05-28T12:12:28;6.65;;;4.72;;
77310;SDS011;66371;52.714;5.074;2023-05-28T12:15:00;11.85;;;5.53;;
77310;SDS011;66371;52.714;5.074;2023-05-28T12:17:27;8.60;;;5.30;;
77310;SDS011;66371;52.714;5.074;2023-05-28T12:20:02;7.50;;;5.72;;
77310;SDS011;66371;52.714;5.074;2023-05-28T12:22:32;7.68;;;4.50;;
77310;SDS011;66371;52.714;5.074;2023-05-28T12:24:57;6.55;;;5.47;;
77310;SDS011;66371;52.714;5.074;2023-05-28T12:27:23;10.40;;;6.03;;
77310;SDS011;66371;52.714;5.074;2023-05-28T12:29:49;8.23;;;5.10;;
77310;SDS011;66371;52.714;5.074;2023-05-28T12:32:14;7.18;;;4.45;;
77310;SDS011;66371;52.714;5.074;2023-05-28T12:34:44;6.72;;;5.30;;
77310;SDS011;66371;52.714;5.074;2023-05-28T12:37:09;9.68;;;4.45;;
77310;SDS011;66371;52.714;5.074;2023-05-28T12:39:35;8.85;;;4.97;;
77310;SDS011;66371;52.714;5.074;2023-05-28T12:42:03;7.38;;;4.72;;
77310;SDS011;66371;52.714;5.074;2023-05-28T12:44:28;6.22;;;4.72;;
77310;SDS011;66371;52.714;5.074;2023-05-28T12:46:54;10.63;;;4.93;;
77310;SDS011;66371;52.714;5.074;2023-05-28T12:49:20;6.32;;;4.55;;
77310;SDS011;66371;52.714;5.074;2023-05-28T12:51:45;6.85;;;3.40;;
77310;SDS011;66371;52.714;5.074;2023-05-28T12:54:11;6.75;;;4.53;;
77310;SDS011;66371;52.714;5.074;2023-05-28T12:56:36;8.25;;;4.53;;
77310;SDS011;66371;52.714;5.074;2023-05-28T12:59:02;7.38;;;4.45;;
77310;SDS011;66371;52.714;5.074;2023-05-28T13:01:27;7.23;;;4.13;;
77310;SDS011;66371;52.714;5.074;2023-05-28T13:03:53;8.95;;;4.90;;
77310;SDS011;66371;52.714;5.074;2023-05-28T13:06:18;6.35;;;4.35;;
77310;SDS011;66371;52.714;5.074;2023-05-28T13:08:44;9.85;;;4.68;;
77310;SDS011;66371;52.714;5.074;2023-05-28T13:11:10;9.90;;;6.28;;
77310;SDS011;66371;52.714;5.074;2023-05-28T13:13:36;8.93;;;4.68;;
77310;SDS011;66371;52.714;5.074;2023-05-28T13:16:02;8.18;;;3.97;;
77310;SDS011;66371;52.714;5.074;2023-05-28T13:18:28;9.05;;;5.30;;
77310;SDS011;66371;52.714;5.074;2023-05-28T13:20:53;7.47;;;4.33;;
77310;SDS011;66371;52.714;5.074;2023-05-28T13:23:18;8.57;;;5.68;;
77310;SDS011;66371;52.714;5.074;2023-05-28T13:25:44;7.27;;;4.80;;
77310;SDS011;66371;52.714;5.074;2023-05-28T13:28:12;7.60;;;4.60;;
77310;SDS011;66371;52.714;5.074;2023-05-28T13:30:37;8.75;;;5.13;;
77310;SDS011;66371;52.714;5.074;2023-05-28T13:33:03;10.50;;;4.80;;
77310;SDS011;66371;52.714;5.074;2023-05-28T13:35:28;8.40;;;5.60;;
77310;SDS011;66371;52.714;5.074;2023-05-28T13:37:53;10.83;;;4.83;;
77310;SDS011;66371;52.714;5.074;2023-05-28T13:40:21;10.88;;;5.82;;
77310;SDS011;66371;52.714;5.074;2023-05-28T13:42:48;8.43;;;4.47;;
77310;SDS011;66371;52.714;5.074;2023-05-28T13:45:14;7.55;;;4.88;;
77310;SDS011;66371;52.714;5.074;2023-05-28T13:47:40;9.75;;;5.97;;
77310;SDS011;66371;52.714;5.074;2023-05-28T13:50:07;7.75;;;5.68;;
77310;SDS011;66371;52.714;5.074;2023-05-28T13:52:33;7.95;;;5.55;;
77310;SDS011;66371;52.714;5.074;2023-05-28T13:55:01;13.07;;;4.93;;
77310;SDS011;66371;52.714;5.074;2023-05-28T13:57:26;8.70;;;5.32;;
77310;SDS011;66371;52.714;5.074;2023-05-28T13:59:52;9.57;;;5.40;;
77310;SDS011;66371;52.714;5.074;2023-05-28T14:02:17;9.83;;;4.57;;
77310;SDS011;66371;52.714;5.074;2023-05-28T14:04:43;8.50;;;5.20;;
77310;SDS011;66371;52.714;5.074;2023-05-28T14:07:08;7.18;;;4.57;;
77310;SDS011;66371;52.714;5.074;2023-05-28T14:09:34;7.10;;;5.50;;
77310;SDS011;66371;52.714;5.074;2023-05-28T14:12:02;5.65;;;4.80;;
77310;SDS011;66371;52.714;5.074;2023-05-28T14:14:27;7.93;;;4.55;;
77310;SDS011;66371;52.714;5.074;2023-05-28T14:16:53;8.68;;;4.95;;
77310;SDS011;66371;52.714;5.074;2023-05-28T14:19:18;6.53;;;5.47;;
77310;SDS011;66371;52.714;5.074;2023-05-28T14:21:43;10.43;;;4.80;;
77310;SDS011;66371;52.714;5.074;2023-05-28T14:24:09;10.85;;;5.50;;
77310;SDS011;66371;52.714;5.074;2023-05-28T14:26:35;8.10;;;5.07;;
77310;SDS011;66371;52.714;5.074;2023-05-28T14:29:00;9.82;;;5.60;;
77310;SDS011;66371;52.714;5.074;2023-05-28T14:31:26;10.05;;;4.78;;
77310;SDS011;66371;52.714;5.074;2023-05-28T14:33:51;7.47;;;4.80;;
77310;SDS011;66371;52.714;5.074;2023-05-28T14:36:17;7.07;;;4.30;;
77310;SDS011;66371;52.714;5.074;2023-05-28T14:38:42;8.40;;;7.63;;
77310;SDS011;66371;52.714;5.074;2023-05-28T14:41:07;10.80;;;4.37;;
77310;SDS011;66371;52.714;5.074;2023-05-28T14:43:33;7.82;;;4.60;;
77310;SDS011;66371;52.714;5.074;2023-05-28T14:45:58;10.25;;;4.72;;
77310;SDS011;66371;52.714;5.074;2023-05-28T14:48:23;14.07;;;4.97;;
77310;SDS011;66371;52.714;5.074;2023-05-28T14:50:49;12.57;;;5.20;;
77310;SDS011;66371;52.714;5.074;2023-05-28T14:53:14;10.90;;;5.38;;
77310;SDS011;66371;52.714;5.074;2023-05-28T14:55:40;7.95;;;5.63;;
77310;SDS011;66371;52.714;5.074;2023-05-28T14:58:05;11.75;;;5.93;;
77310;SDS011;66371;52.714;5.074;2023-05-28T15:00:31;8.43;;;5.57;;
77310;SDS011;66371;52.714;5.074;2023-05-28T15:02:57;10.05;;;4.93;;
77310;SDS011;66371;52.714;5.074;2023-05-28T15:05:22;8.45;;;4.72;;
77310;SDS011;66371;52.714;5.074;2023-05-28T15:07:48;9.82;;;6.63;;
77310;SDS011;66371;52.714;5.074;2023-05-28T15:10:13;10.07;;;4.88;;
77310;SDS011;66371;52.714;5.074;2023-05-28T15:12:40;10.85;;;5.13;;
77310;SDS011;66371;52.714;5.074;2023-05-28T15:15:05;16.05;;;5.75;;
77310;SDS011;66371;52.714;5.074;2023-05-28T15:17:32;9.27;;;5.43;;
77310;SDS011;66371;52.714;5.074;2023-05-28T15:19:57;16.38;;;5.80;;
77310;SDS011;66371;52.714;5.074;2023-05-28T15:22:23;9.77;;;5.68;;
77310;SDS011;66371;52.714;5.074;2023-05-28T15:24:48;10.80;;;6.15;;
77310;SDS011;66371;52.714;5.074;2023-05-28T15:27:15;8.98;;;6.60;;
77310;SDS011;66371;52.714;5.074;2023-05-28T15:29:41;11.88;;;4.80;;
77310;SDS011;66371;52.714;5.074;2023-05-28T15:32:09;9.90;;;6.50;;